KIGM

Kingman Airport

Kingman, Arizona, USA
METAR KIGM 271151Z AUTO 00000KT 10SM CLR 12/M02 A2988 RMK AO2 SLPNO T01171017 10172 20106 53001 $
Observed Flight Rules
May-27 @ 11:51 UTC (16 minutes ago) Visual Flight Rules
Visibility Clouds
10 miles
  • Clear skies
Temperatures Readings
Current 12°C / 54°F
Dewpoint -2°C / 28°F
Humidity 38%
Altimeter 29.88" Hg
Pressure 1012 hPa
Elevation 1032
METAR KIGM 271151Z AUTO 00000KT 10SM CLR 12/M02 A2988 RMK AO2 SLPNO T01171017 10172 20106 53001 $
Observed Flight Rules
May-27 @ 11:51 UTC
(16 minutes ago)
VFR
Clouds
  • Clear skies
Temperature Dewpoint
12°C / 54°F -2°C / 28°F
Humidity Altimeter Pressure
38% 29.88" Hg 1012 hPa